Terminal Aerodrome Forecast
Issued by NWS

Home | Current Version | Previous Version | Text Only | Print | Product List | Glossary On
Versions: 1 2 3 4 5 6 7 8 9 10 11 12 13 14 15 16 17 18 19 20 21 22 23 24 25 26 27
000
FTUS42 KGSP 292320
TAFHKY
TAF
KHKY 292320Z 3000/3024 19004KT P6SM SCT050 BKN170
     FM300400 20003KT P6SM SCT045 BKN090
     FM301700 17006KT P6SM SCT045 BKN060 PROB30 3017/3021 4SM TSRA
      BKN400CB
     FM302100 19004KT P6SM BKN045=

USA.gov is the U.S. government's official web portal to all federal, state and local government web resources and services.